LIC2607 LEAM-LECO
Flight info
| Callsign | LIC2607 |
|---|---|
| Flight time | 1h 28m |
| Altitude | 34000 |
| Route | AGIDO M192 BLN N865 VTB/N0447F330 L155 ZMR N733 DESAT/N0391F230 N733 FORNO |
| Aircraft | A320/M-SDE3FGHIRWY/LB1 |
Departure
| Time | 2026-05-04 08:43 |
|---|---|
| Airport | Almería Airport (LEAM) |
Arrival
| Time | 2026-05-04 10:11 |
|---|---|
| Airport | A Coruña Airport (LECO) |
| Time | Latitude | Longitude | Altitude | Speed | Heading |
|---|---|---|---|---|---|
| 2026-05-04 08:24 | 36.84652 | -2.37247 | 70 ft | 0 kts | 116° |
| 2026-05-04 08:38 | 36.84652 | -2.37246 | 70 ft | 2 kts | 116° |
| 2026-05-04 08:38 | 36.84620 | -2.37145 | 65 ft | 18 kts | 96° |
| 2026-05-04 08:38 | 36.84646 | -2.37010 | 65 ft | 14 kts | 75° |
| 2026-05-04 08:40 | 36.84796 | -2.36083 | 62 ft | 17 kts | 73° |
| 2026-05-04 08:40 | 36.84831 | -2.35943 | 60 ft | 16 kts | 73° |
| 2026-05-04 08:40 | 36.84862 | -2.35815 | 61 ft | 15 kts | 73° |
| 2026-05-04 08:41 | 36.84892 | -2.35696 | 62 ft | 14 kts | 72° |
| 2026-05-04 08:41 | 36.84920 | -2.35584 | 63 ft | 13 kts | 72° |
| 2026-05-04 08:41 | 36.84944 | -2.35480 | 60 ft | 12 kts | 74° |
| 2026-05-04 08:41 | 36.84941 | -2.35381 | 58 ft | 11 kts | 114° |
| 2026-05-04 08:42 | 36.84877 | -2.35327 | 59 ft | 12 kts | 160° |
| 2026-05-04 08:42 | 36.84805 | -2.35350 | 56 ft | 12 kts | 239° |
| 2026-05-04 08:42 | 36.84775 | -2.35470 | 59 ft | 24 kts | 253° |
| 2026-05-04 08:42 | 36.84646 | -2.35991 | 61 ft | 98 kts | 253° |
| 2026-05-04 08:43 | 36.84390 | -2.37046 | 100 ft | 149 kts | 254° |
| 2026-05-04 08:43 | 36.84091 | -2.38283 | 784 ft | 150 kts | 253° |
| 2026-05-04 08:43 | 36.83785 | -2.39517 | 1629 ft | 148 kts | 252° |
| 2026-05-04 08:43 | 36.83471 | -2.40780 | 2225 ft | 161 kts | 252° |
| 2026-05-04 08:44 | 36.83118 | -2.42201 | 2564 ft | 182 kts | 252° |
| 2026-05-04 08:44 | 36.82721 | -2.43802 | 2981 ft | 201 kts | 253° |
| 2026-05-04 08:46 | 36.75668 | -2.49058 | 8426 ft | 241 kts | 167° |
| 2026-05-04 08:46 | 36.74095 | -2.48339 | 8495 ft | 240 kts | 167° |
| 2026-05-04 08:46 | 36.72524 | -2.47626 | 8501 ft | 241 kts | 164° |
| 2026-05-04 08:46 | 36.71166 | -2.46352 | 8493 ft | 255 kts | 130° |
| 2026-05-04 08:47 | 36.70561 | -2.44242 | 8516 ft | 272 kts | 92° |
| 2026-05-04 08:47 | 36.70879 | -2.41895 | 8500 ft | 278 kts | 75° |
| 2026-05-04 08:47 | 36.71425 | -2.39574 | 8508 ft | 279 kts | 73° |
| 2026-05-04 08:47 | 36.72025 | -2.37236 | 8502 ft | 279 kts | 72° |
| 2026-05-04 08:48 | 36.72624 | -2.34936 | 8505 ft | 280 kts | 72° |
| 2026-05-04 08:48 | 36.73244 | -2.32622 | 8505 ft | 282 kts | 66° |
| 2026-05-04 08:48 | 36.74304 | -2.30598 | 8509 ft | 279 kts | 41° |
| 2026-05-04 08:48 | 36.75865 | -2.29220 | 8510 ft | 279 kts | 18° |
| 2026-05-04 08:49 | 36.77794 | -2.28662 | 8921 ft | 291 kts | 355° |
| 2026-05-04 08:50 | 36.91669 | -2.28765 | 12667 ft | 367 kts | 353° |
| 2026-05-04 08:50 | 36.94250 | -2.28777 | 13416 ft | 374 kts | 353° |
| 2026-05-04 08:51 | 36.96866 | -2.28790 | 14119 ft | 379 kts | 353° |
| 2026-05-04 08:51 | 36.99505 | -2.28902 | 14851 ft | 377 kts | 345° |
| 2026-05-04 08:51 | 37.02026 | -2.29641 | 15555 ft | 370 kts | 332° |
| 2026-05-04 08:51 | 37.04309 | -2.31040 | 16235 ft | 363 kts | 319° |
| 2026-05-04 08:52 | 37.06265 | -2.32988 | 16900 ft | 357 kts | 307° |
| 2026-05-04 08:52 | 37.07817 | -2.35369 | 17555 ft | 351 kts | 295° |
| 2026-05-04 08:52 | 37.09002 | -2.38027 | 18247 ft | 350 kts | 291° |
| 2026-05-04 08:52 | 37.10156 | -2.40728 | 18857 ft | 354 kts | 291° |
| 2026-05-04 08:53 | 37.11325 | -2.43452 | 19462 ft | 356 kts | 291° |
| 2026-05-04 08:54 | 37.20099 | -2.62981 | 23548 ft | 387 kts | 304° |
| 2026-05-04 08:55 | 37.22094 | -2.65324 | 24056 ft | 398 kts | 312° |
| 2026-05-04 08:55 | 37.24247 | -2.67532 | 24512 ft | 401 kts | 312° |
| 2026-05-04 08:55 | 37.26407 | -2.69750 | 24962 ft | 402 kts | 312° |
| 2026-05-04 08:55 | 37.28571 | -2.71980 | 25389 ft | 404 kts | 311° |
| 2026-05-04 08:57 | 37.44030 | -2.88009 | 28178 ft | 420 kts | 311° |
| 2026-05-04 09:01 | 37.75637 | -3.20802 | 33306 ft | 433 kts | 311° |
| 2026-05-04 09:01 | 37.77955 | -3.23220 | 33722 ft | 431 kts | 311° |
| 2026-05-04 09:01 | 37.80266 | -3.25635 | 33991 ft | 431 kts | 311° |
| 2026-05-04 09:02 | 37.84833 | -3.30412 | 34042 ft | 423 kts | 310° |
| 2026-05-04 09:02 | 37.89351 | -3.35151 | 34042 ft | 421 kts | 310° |
| 2026-05-04 09:03 | 37.93866 | -3.39892 | 34041 ft | 422 kts | 310° |
| 2026-05-04 09:03 | 37.98386 | -3.44649 | 34055 ft | 422 kts | 310° |
| 2026-05-04 09:04 | 38.02892 | -3.49393 | 34035 ft | 421 kts | 310° |
| 2026-05-04 09:04 | 38.07390 | -3.54141 | 34032 ft | 420 kts | 310° |
| 2026-05-04 09:05 | 38.11975 | -3.58781 | 34030 ft | 429 kts | 318° |
| 2026-05-04 09:05 | 38.14672 | -3.60536 | 34071 ft | 444 kts | 329° |
| 2026-05-04 09:05 | 38.17683 | -3.61625 | 34061 ft | 458 kts | 341° |
| 2026-05-04 09:05 | 38.20911 | -3.61935 | 34050 ft | 473 kts | 354° |
| 2026-05-04 09:06 | 38.24213 | -3.61636 | 34028 ft | 476 kts | 356° |
| 2026-05-04 09:08 | 38.50738 | -3.59048 | 34010 ft | 477 kts | 356° |
| 2026-05-04 09:08 | 38.57364 | -3.58404 | 34013 ft | 478 kts | 356° |
| 2026-05-04 09:09 | 38.63990 | -3.57751 | 34041 ft | 478 kts | 356° |
| 2026-05-04 09:09 | 38.70616 | -3.57094 | 34031 ft | 477 kts | 356° |
| 2026-05-04 09:10 | 38.77235 | -3.56445 | 34022 ft | 477 kts | 356° |
| 2026-05-04 09:10 | 38.83849 | -3.55800 | 34062 ft | 477 kts | 356° |
| 2026-05-04 09:11 | 38.90465 | -3.55152 | 34039 ft | 477 kts | 356° |
| 2026-05-04 09:11 | 38.97080 | -3.54507 | 34023 ft | 477 kts | 356° |
| 2026-05-04 09:12 | 39.03698 | -3.53859 | 34009 ft | 477 kts | 356° |
| 2026-05-04 09:14 | 39.30210 | -3.51217 | 34042 ft | 478 kts | 356° |
| 2026-05-04 09:14 | 39.36853 | -3.50551 | 34005 ft | 480 kts | 356° |
| 2026-05-04 09:15 | 39.43556 | -3.49873 | 33989 ft | 480 kts | 356° |
| 2026-05-04 09:15 | 39.50222 | -3.49206 | 33986 ft | 481 kts | 356° |
| 2026-05-04 09:17 | 39.79518 | -3.50199 | 33999 ft | 442 kts | 322° |
| 2026-05-04 09:18 | 39.82100 | -3.52262 | 33991 ft | 431 kts | 314° |
| 2026-05-04 09:18 | 39.84359 | -3.54707 | 33989 ft | 421 kts | 306° |
| 2026-05-04 09:18 | 39.88458 | -3.60108 | 33981 ft | 419 kts | 304° |
| 2026-05-04 09:19 | 39.92550 | -3.65536 | 33984 ft | 420 kts | 304° |
| 2026-05-04 09:19 | 39.96642 | -3.70980 | 33989 ft | 421 kts | 304° |
| 2026-05-04 09:20 | 40.00750 | -3.76443 | 34005 ft | 422 kts | 305° |
| 2026-05-04 09:20 | 40.04866 | -3.81924 | 34007 ft | 423 kts | 305° |
| 2026-05-04 09:21 | 40.08985 | -3.87419 | 34010 ft | 423 kts | 305° |
| 2026-05-04 09:21 | 40.13097 | -3.92930 | 34001 ft | 424 kts | 305° |
| 2026-05-04 09:22 | 40.17209 | -3.98447 | 33993 ft | 424 kts | 305° |
| 2026-05-04 09:22 | 40.21332 | -4.03979 | 34008 ft | 425 kts | 306° |
| 2026-05-04 09:23 | 40.25488 | -4.09559 | 33991 ft | 426 kts | 306° |
| 2026-05-04 09:23 | 40.29614 | -4.15129 | 33994 ft | 426 kts | 306° |
| 2026-05-04 09:25 | 40.46883 | -4.36739 | 34012 ft | 433 kts | 311° |
| 2026-05-04 09:26 | 40.51423 | -4.41948 | 33999 ft | 433 kts | 310° |
| 2026-05-04 09:26 | 40.55910 | -4.47220 | 34000 ft | 432 kts | 310° |
| 2026-05-04 09:27 | 40.60380 | -4.52516 | 34000 ft | 433 kts | 310° |
| 2026-05-04 09:27 | 40.64860 | -4.57814 | 34025 ft | 433 kts | 310° |
| 2026-05-04 09:28 | 40.69333 | -4.63096 | 34026 ft | 430 kts | 311° |
| 2026-05-04 09:28 | 40.73772 | -4.68340 | 33668 ft | 427 kts | 310° |
| 2026-05-04 09:29 | 40.75981 | -4.70964 | 33398 ft | 427 kts | 310° |
| 2026-05-04 09:29 | 40.78187 | -4.73594 | 33136 ft | 427 kts | 310° |
| 2026-05-04 09:29 | 40.80391 | -4.76223 | 32988 ft | 427 kts | 310° |
| 2026-05-04 09:29 | 40.82599 | -4.78856 | 33037 ft | 428 kts | 311° |
| 2026-05-04 09:30 | 40.87031 | -4.84137 | 33032 ft | 429 kts | 311° |
| 2026-05-04 09:30 | 40.91468 | -4.89427 | 33039 ft | 430 kts | 311° |
| 2026-05-04 09:31 | 40.95180 | -4.93866 | 33032 ft | 430 kts | 311° |
| 2026-05-04 09:31 | 40.99607 | -4.99167 | 33046 ft | 429 kts | 311° |
| 2026-05-04 09:32 | 41.04023 | -5.04469 | 33066 ft | 428 kts | 312° |
| 2026-05-04 09:34 | 41.21654 | -5.25730 | 33026 ft | 428 kts | 312° |
| 2026-05-04 09:34 | 41.26056 | -5.31055 | 33033 ft | 428 kts | 312° |
| 2026-05-04 09:35 | 41.30457 | -5.36394 | 33045 ft | 428 kts | 313° |
| 2026-05-04 09:35 | 41.34874 | -5.41781 | 33041 ft | 427 kts | 313° |
| 2026-05-04 09:37 | 41.52364 | -5.63208 | 33030 ft | 425 kts | 309° |
| 2026-05-04 09:38 | 41.55904 | -5.69430 | 33025 ft | 420 kts | 301° |
| 2026-05-04 09:38 | 41.59247 | -5.75833 | 33031 ft | 420 kts | 301° |
| 2026-05-04 09:39 | 41.62587 | -5.82225 | 33036 ft | 419 kts | 301° |
| 2026-05-04 09:39 | 41.65922 | -5.88620 | 33042 ft | 419 kts | 302° |
| 2026-05-04 09:40 | 41.69251 | -5.95017 | 33031 ft | 419 kts | 302° |
| 2026-05-04 09:40 | 41.72578 | -6.01419 | 33012 ft | 419 kts | 301° |
| 2026-05-04 09:42 | 41.85816 | -6.27072 | 33023 ft | 418 kts | 302° |
| 2026-05-04 09:43 | 41.89140 | -6.33540 | 33023 ft | 418 kts | 302° |
| 2026-05-04 09:43 | 41.92439 | -6.39979 | 33016 ft | 418 kts | 302° |
| 2026-05-04 09:44 | 41.95729 | -6.46426 | 33018 ft | 418 kts | 301° |
| 2026-05-04 09:46 | 42.08807 | -6.72128 | 31379 ft | 415 kts | 302° |
| 2026-05-04 09:46 | 42.10433 | -6.75346 | 31056 ft | 414 kts | 302° |
| 2026-05-04 09:46 | 42.12044 | -6.78540 | 30694 ft | 411 kts | 302° |
| 2026-05-04 09:47 | 42.13647 | -6.81713 | 30336 ft | 408 kts | 302° |
| 2026-05-04 09:47 | 42.15232 | -6.84859 | 29957 ft | 404 kts | 302° |
| 2026-05-04 09:49 | 42.26017 | -7.06328 | 27079 ft | 386 kts | 302° |
| 2026-05-04 09:49 | 42.27516 | -7.09326 | 26691 ft | 384 kts | 302° |
| 2026-05-04 09:49 | 42.29003 | -7.12300 | 26304 ft | 381 kts | 302° |
| 2026-05-04 09:51 | 42.37718 | -7.29767 | 24106 ft | 365 kts | 302° |
| 2026-05-04 09:51 | 42.39147 | -7.32644 | 23771 ft | 363 kts | 301° |
| 2026-05-04 09:51 | 42.40548 | -7.35470 | 23368 ft | 361 kts | 301° |
| 2026-05-04 09:51 | 42.41942 | -7.38282 | 23065 ft | 359 kts | 301° |
| 2026-05-04 09:52 | 42.43332 | -7.41090 | 23080 ft | 359 kts | 301° |
| 2026-05-04 09:52 | 42.44719 | -7.43901 | 23084 ft | 359 kts | 301° |
| 2026-05-04 09:52 | 42.46217 | -7.46619 | 23090 ft | 362 kts | 308° |
| 2026-05-04 09:52 | 42.48020 | -7.49006 | 23080 ft | 365 kts | 317° |
| 2026-05-04 09:53 | 42.50095 | -7.51014 | 23085 ft | 368 kts | 323° |
| 2026-05-04 09:53 | 42.52246 | -7.52880 | 23081 ft | 368 kts | 323° |
| 2026-05-04 09:53 | 42.54401 | -7.54761 | 23084 ft | 368 kts | 323° |
| 2026-05-04 09:53 | 42.56547 | -7.56642 | 23089 ft | 367 kts | 323° |
| 2026-05-04 09:54 | 42.58690 | -7.58526 | 23086 ft | 367 kts | 323° |
| 2026-05-04 09:54 | 42.60834 | -7.60413 | 23084 ft | 367 kts | 323° |
| 2026-05-04 09:54 | 42.62978 | -7.62299 | 23090 ft | 367 kts | 323° |
| 2026-05-04 09:54 | 42.65122 | -7.64182 | 22870 ft | 366 kts | 323° |
| 2026-05-04 09:55 | 42.67259 | -7.66063 | 22601 ft | 365 kts | 323° |
| 2026-05-04 09:55 | 42.69384 | -7.67934 | 22330 ft | 364 kts | 323° |
| 2026-05-04 09:55 | 42.71501 | -7.69802 | 22148 ft | 362 kts | 323° |
| 2026-05-04 09:55 | 42.73613 | -7.71669 | 22126 ft | 362 kts | 323° |
| 2026-05-04 09:56 | 42.75724 | -7.73535 | 22096 ft | 362 kts | 323° |
| 2026-05-04 09:56 | 42.77836 | -7.75405 | 21675 ft | 363 kts | 323° |
| 2026-05-04 09:56 | 42.79963 | -7.77288 | 21051 ft | 363 kts | 323° |
| 2026-05-04 09:56 | 42.82071 | -7.79152 | 20555 ft | 359 kts | 323° |
| 2026-05-04 09:57 | 42.84157 | -7.80998 | 20048 ft | 356 kts | 323° |
| 2026-05-04 09:57 | 42.86224 | -7.82830 | 19555 ft | 354 kts | 324° |
| 2026-05-04 09:57 | 42.88282 | -7.84657 | 19053 ft | 352 kts | 324° |
| 2026-05-04 09:57 | 42.90332 | -7.86476 | 18545 ft | 351 kts | 324° |
| 2026-05-04 09:58 | 42.92370 | -7.88287 | 17997 ft | 349 kts | 324° |
| 2026-05-04 09:58 | 42.94402 | -7.90093 | 17455 ft | 347 kts | 324° |
| 2026-05-04 09:58 | 42.96420 | -7.91887 | 16958 ft | 345 kts | 324° |
| 2026-05-04 10:00 | 43.10244 | -8.04235 | 13569 ft | 332 kts | 324° |
| 2026-05-04 10:00 | 43.12168 | -8.05961 | 13057 ft | 329 kts | 324° |
| 2026-05-04 10:02 | 43.25131 | -8.17590 | 10185 ft | 297 kts | 324° |
| 2026-05-04 10:04 | 43.37608 | -8.12578 | 7318 ft | 269 kts | 5° |
| 2026-05-04 10:04 | 43.39456 | -8.12386 | 6712 ft | 267 kts | 356° |
| 2026-05-04 10:04 | 43.41291 | -8.12539 | 6253 ft | 260 kts | 349° |
| 2026-05-04 10:04 | 43.42472 | -8.12818 | 6002 ft | 250 kts | 344° |
| 2026-05-04 10:05 | 43.44113 | -8.13454 | 5462 ft | 243 kts | 337° |
| 2026-05-04 10:05 | 43.45676 | -8.14369 | 4946 ft | 246 kts | 329° |
| 2026-05-04 10:05 | 43.47126 | -8.15553 | 4741 ft | 238 kts | 322° |
| 2026-05-04 10:05 | 43.48426 | -8.16944 | 4634 ft | 236 kts | 315° |
| 2026-05-04 10:06 | 43.49519 | -8.18586 | 4530 ft | 228 kts | 295° |
| 2026-05-04 10:06 | 43.49738 | -8.20636 | 4450 ft | 216 kts | 255° |
| 2026-05-04 10:06 | 43.48933 | -8.22291 | 4374 ft | 212 kts | 219° |
| 2026-05-04 10:08 | 43.41673 | -8.28285 | 2786 ft | 187 kts | 213° |
| 2026-05-04 10:08 | 43.40579 | -8.29187 | 2535 ft | 181 kts | 213° |
| 2026-05-04 10:08 | 43.39514 | -8.30066 | 2291 ft | 177 kts | 213° |
| 2026-05-04 10:08 | 43.38460 | -8.30934 | 2058 ft | 174 kts | 213° |
| 2026-05-04 10:09 | 43.37442 | -8.31773 | 1828 ft | 167 kts | 214° |
| 2026-05-04 10:09 | 43.36479 | -8.32565 | 1612 ft | 159 kts | 213° |
| 2026-05-04 10:09 | 43.35533 | -8.33344 | 1404 ft | 159 kts | 213° |
| 2026-05-04 10:09 | 43.34602 | -8.34110 | 1171 ft | 150 kts | 213° |
| 2026-05-04 10:10 | 43.33747 | -8.34811 | 986 ft | 137 kts | 215° |
| 2026-05-04 10:10 | 43.32949 | -8.35468 | 797 ft | 132 kts | 214° |
| 2026-05-04 10:10 | 43.32170 | -8.36109 | 623 ft | 131 kts | 213° |
| 2026-05-04 10:10 | 43.31382 | -8.36757 | 450 ft | 133 kts | 214° |
| 2026-05-04 10:11 | 43.30589 | -8.37409 | 283 ft | 132 kts | 213° |
| 2026-05-04 10:11 | 43.29944 | -8.37941 | 275 ft | 67 kts | 210° |
| 2026-05-04 10:11 | 43.29680 | -8.38151 | 271 ft | 40 kts | 210° |
| 2026-05-04 10:11 | 43.29448 | -8.38348 | 270 ft | 32 kts | 212° |
| 2026-05-04 10:12 | 43.29306 | -8.38466 | 271 ft | 17 kts | 211° |
| 2026-05-04 10:12 | 43.29232 | -8.38578 | 271 ft | 16 kts | 205° |
| 2026-05-04 10:12 | 43.29214 | -8.38548 | 274 ft | 5 kts | 49° |
| 2026-05-04 10:12 | 43.29285 | -8.38493 | 271 ft | 14 kts | 355° |
| 2026-05-04 10:13 | 43.29313 | -8.38540 | 272 ft | 2 kts | 274° |
| 2026-05-04 10:13 | 43.29323 | -8.38548 | 272 ft | 8 kts | 336° |
| 2026-05-04 10:13 | 43.29394 | -8.38435 | 270 ft | 22 kts | 59° |
| 2026-05-04 10:13 | 43.29512 | -8.38293 | 270 ft | 24 kts | 31° |
| 2026-05-04 10:14 | 43.29654 | -8.38179 | 270 ft | 19 kts | 31° |
| 2026-05-04 10:14 | 43.29768 | -8.38085 | 273 ft | 20 kts | 31° |
| 2026-05-04 10:16 | 43.30154 | -8.38064 | 274 ft | 2 kts | 317° |
| 2026-05-04 10:16 | 43.30160 | -8.38074 | 274 ft | 1 kts | 312° |
| 2026-05-04 10:16 | 43.30165 | -8.38081 | 274 ft | 0 kts | 317° |